sensor_id;sensor_type;location;lat;lon;timestamp;P1;durP1;ratioP1;P2;durP2;ratioP2
8716;SDS011;4395;48.554;8.820;2024-03-07T00:01:01;35.90;;;24.10;;
8716;SDS011;4395;48.554;8.820;2024-03-07T00:03:04;37.47;;;24.58;;
8716;SDS011;4395;48.554;8.820;2024-03-07T00:05:07;36.22;;;23.17;;
8716;SDS011;4395;48.554;8.820;2024-03-07T00:07:09;37.92;;;24.33;;
8716;SDS011;4395;48.554;8.820;2024-03-07T00:09:12;34.20;;;23.65;;
8716;SDS011;4395;48.554;8.820;2024-03-07T00:11:16;35.58;;;24.23;;
8716;SDS011;4395;48.554;8.820;2024-03-07T00:13:20;36.80;;;23.65;;
8716;SDS011;4395;48.554;8.820;2024-03-07T00:15:24;39.17;;;24.77;;
8716;SDS011;4395;48.554;8.820;2024-03-07T00:17:26;35.88;;;23.20;;
8716;SDS011;4395;48.554;8.820;2024-03-07T00:19:29;35.75;;;24.15;;
8716;SDS011;4395;48.554;8.820;2024-03-07T00:21:32;37.92;;;24.40;;
8716;SDS011;4395;48.554;8.820;2024-03-07T00:23:35;36.35;;;23.42;;
8716;SDS011;4395;48.554;8.820;2024-03-07T00:25:38;35.53;;;23.60;;
8716;SDS011;4395;48.554;8.820;2024-03-07T00:27:40;34.22;;;22.95;;
8716;SDS011;4395;48.554;8.820;2024-03-07T00:29:42;35.10;;;24.17;;
8716;SDS011;4395;48.554;8.820;2024-03-07T00:31:49;34.38;;;24.13;;
8716;SDS011;4395;48.554;8.820;2024-03-07T00:33:51;34.95;;;24.90;;
8716;SDS011;4395;48.554;8.820;2024-03-07T00:36:13;33.78;;;23.58;;
8716;SDS011;4395;48.554;8.820;2024-03-07T00:38:17;34.20;;;23.00;;
8716;SDS011;4395;48.554;8.820;2024-03-07T00:40:20;36.28;;;24.42;;
8716;SDS011;4395;48.554;8.820;2024-03-07T00:42:22;32.90;;;22.75;;
8716;SDS011;4395;48.554;8.820;2024-03-07T00:44:24;34.45;;;23.33;;
8716;SDS011;4395;48.554;8.820;2024-03-07T00:46:27;35.40;;;23.27;;
8716;SDS011;4395;48.554;8.820;2024-03-07T00:48:32;37.17;;;23.60;;
8716;SDS011;4395;48.554;8.820;2024-03-07T00:50:35;34.38;;;24.02;;
8716;SDS011;4395;48.554;8.820;2024-03-07T00:52:37;34.25;;;23.42;;
8716;SDS011;4395;48.554;8.820;2024-03-07T00:54:40;36.75;;;23.52;;
8716;SDS011;4395;48.554;8.820;2024-03-07T00:56:43;35.75;;;23.27;;
8716;SDS011;4395;48.554;8.820;2024-03-07T00:58:47;35.75;;;23.30;;
8716;SDS011;4395;48.554;8.820;2024-03-07T01:00:50;37.42;;;23.30;;
8716;SDS011;4395;48.554;8.820;2024-03-07T01:02:56;34.25;;;23.65;;
8716;SDS011;4395;48.554;8.820;2024-03-07T01:05:00;34.35;;;24.52;;
8716;SDS011;4395;48.554;8.820;2024-03-07T01:07:02;34.08;;;23.98;;
8716;SDS011;4395;48.554;8.820;2024-03-07T01:09:05;37.25;;;24.45;;
8716;SDS011;4395;48.554;8.820;2024-03-07T01:11:15;34.15;;;24.15;;
8716;SDS011;4395;48.554;8.820;2024-03-07T01:13:18;34.05;;;23.05;;
8716;SDS011;4395;48.554;8.820;2024-03-07T01:15:24;34.30;;;24.35;;
8716;SDS011;4395;48.554;8.820;2024-03-07T01:17:29;35.30;;;25.00;;
8716;SDS011;4395;48.554;8.820;2024-03-07T01:19:31;38.25;;;25.13;;
8716;SDS011;4395;48.554;8.820;2024-03-07T01:21:36;34.47;;;23.27;;
8716;SDS011;4395;48.554;8.820;2024-03-07T01:23:39;35.40;;;23.90;;
8716;SDS011;4395;48.554;8.820;2024-03-07T01:25:42;35.20;;;24.80;;
8716;SDS011;4395;48.554;8.820;2024-03-07T01:27:45;35.55;;;23.67;;
8716;SDS011;4395;48.554;8.820;2024-03-07T01:29:48;36.90;;;25.92;;
8716;SDS011;4395;48.554;8.820;2024-03-07T01:31:50;35.30;;;25.52;;
8716;SDS011;4395;48.554;8.820;2024-03-07T01:33:53;35.60;;;23.58;;
8716;SDS011;4395;48.554;8.820;2024-03-07T01:35:56;35.05;;;24.17;;
8716;SDS011;4395;48.554;8.820;2024-03-07T01:38:00;35.72;;;24.80;;
8716;SDS011;4395;48.554;8.820;2024-03-07T01:40:04;38.80;;;24.67;;
8716;SDS011;4395;48.554;8.820;2024-03-07T01:42:08;41.38;;;27.70;;
8716;SDS011;4395;48.554;8.820;2024-03-07T01:44:11;34.90;;;25.63;;
8716;SDS011;4395;48.554;8.820;2024-03-07T01:46:13;36.00;;;25.45;;
8716;SDS011;4395;48.554;8.820;2024-03-07T01:48:18;36.58;;;25.38;;
8716;SDS011;4395;48.554;8.820;2024-03-07T01:50:27;37.65;;;25.75;;
8716;SDS011;4395;48.554;8.820;2024-03-07T01:52:30;36.60;;;26.52;;
8716;SDS011;4395;48.554;8.820;2024-03-07T01:54:34;35.05;;;24.98;;
8716;SDS011;4395;48.554;8.820;2024-03-07T01:56:36;35.70;;;26.45;;
8716;SDS011;4395;48.554;8.820;2024-03-07T01:58:41;39.67;;;27.17;;
8716;SDS011;4395;48.554;8.820;2024-03-07T02:00:45;35.03;;;25.67;;
8716;SDS011;4395;48.554;8.820;2024-03-07T02:02:48;38.72;;;25.98;;
8716;SDS011;4395;48.554;8.820;2024-03-07T02:04:51;36.83;;;26.60;;
8716;SDS011;4395;48.554;8.820;2024-03-07T02:06:53;38.80;;;27.23;;
8716;SDS011;4395;48.554;8.820;2024-03-07T02:08:57;38.70;;;27.08;;
8716;SDS011;4395;48.554;8.820;2024-03-07T02:11:03;39.30;;;27.15;;
8716;SDS011;4395;48.554;8.820;2024-03-07T02:13:06;42.95;;;29.60;;
8716;SDS011;4395;48.554;8.820;2024-03-07T02:15:09;37.55;;;27.23;;
8716;SDS011;4395;48.554;8.820;2024-03-07T02:17:11;37.42;;;27.35;;
8716;SDS011;4395;48.554;8.820;2024-03-07T02:19:14;39.85;;;28.42;;
8716;SDS011;4395;48.554;8.820;2024-03-07T02:21:19;39.90;;;28.55;;
8716;SDS011;4395;48.554;8.820;2024-03-07T02:23:21;39.10;;;28.30;;
8716;SDS011;4395;48.554;8.820;2024-03-07T02:25:24;37.47;;;28.77;;
8716;SDS011;4395;48.554;8.820;2024-03-07T02:27:27;36.28;;;26.75;;
8716;SDS011;4395;48.554;8.820;2024-03-07T02:29:30;41.25;;;27.98;;
8716;SDS011;4395;48.554;8.820;2024-03-07T02:31:33;41.33;;;28.27;;
8716;SDS011;4395;48.554;8.820;2024-03-07T02:33:42;39.20;;;27.42;;
8716;SDS011;4395;48.554;8.820;2024-03-07T02:35:45;39.65;;;27.75;;
8716;SDS011;4395;48.554;8.820;2024-03-07T02:37:49;45.30;;;30.67;;
8716;SDS011;4395;48.554;8.820;2024-03-07T02:39:51;44.55;;;29.00;;
8716;SDS011;4395;48.554;8.820;2024-03-07T02:41:54;41.50;;;30.20;;
8716;SDS011;4395;48.554;8.820;2024-03-07T02:43:57;38.55;;;28.40;;
8716;SDS011;4395;48.554;8.820;2024-03-07T02:46:00;38.78;;;26.25;;
8716;SDS011;4395;48.554;8.820;2024-03-07T02:48:03;38.45;;;27.02;;
8716;SDS011;4395;48.554;8.820;2024-03-07T02:50:07;36.92;;;27.75;;
8716;SDS011;4395;48.554;8.820;2024-03-07T02:52:11;37.25;;;27.27;;
8716;SDS011;4395;48.554;8.820;2024-03-07T02:54:15;39.70;;;26.52;;
8716;SDS011;4395;48.554;8.820;2024-03-07T02:56:19;37.30;;;26.73;;
8716;SDS011;4395;48.554;8.820;2024-03-07T02:58:21;40.53;;;26.80;;
8716;SDS011;4395;48.554;8.820;2024-03-07T03:00:24;40.70;;;26.73;;
8716;SDS011;4395;48.554;8.820;2024-03-07T03:02:28;40.92;;;27.77;;
8716;SDS011;4395;48.554;8.820;2024-03-07T03:04:31;38.20;;;26.52;;
8716;SDS011;4395;48.554;8.820;2024-03-07T03:06:34;38.88;;;27.88;;
8716;SDS011;4395;48.554;8.820;2024-03-07T03:08:37;33.78;;;25.85;;
8716;SDS011;4395;48.554;8.820;2024-03-07T03:10:41;35.83;;;26.08;;
8716;SDS011;4395;48.554;8.820;2024-03-07T03:12:44;36.70;;;26.55;;
8716;SDS011;4395;48.554;8.820;2024-03-07T03:14:46;35.33;;;24.52;;
8716;SDS011;4395;48.554;8.820;2024-03-07T03:16:49;35.85;;;25.40;;
8716;SDS011;4395;48.554;8.820;2024-03-07T03:18:52;37.35;;;25.45;;
8716;SDS011;4395;48.554;8.820;2024-03-07T03:20:55;36.47;;;26.70;;
8716;SDS011;4395;48.554;8.820;2024-03-07T03:22:58;33.85;;;26.17;;
8716;SDS011;4395;48.554;8.820;2024-03-07T03:25:19;36.55;;;25.02;;
8716;SDS011;4395;48.554;8.820;2024-03-07T03:27:24;37.60;;;25.83;;
8716;SDS011;4395;48.554;8.820;2024-03-07T03:29:27;39.03;;;26.60;;
8716;SDS011;4395;48.554;8.820;2024-03-07T03:31:30;33.72;;;26.17;;
8716;SDS011;4395;48.554;8.820;2024-03-07T03:33:32;38.65;;;28.60;;
8716;SDS011;4395;48.554;8.820;2024-03-07T03:35:35;40.58;;;28.90;;
8716;SDS011;4395;48.554;8.820;2024-03-07T03:37:38;37.97;;;27.52;;
8716;SDS011;4395;48.554;8.820;2024-03-07T03:39:43;59.25;;;41.25;;
8716;SDS011;4395;48.554;8.820;2024-03-07T03:41:48;39.72;;;27.95;;
8716;SDS011;4395;48.554;8.820;2024-03-07T03:43:52;36.83;;;25.65;;
8716;SDS011;4395;48.554;8.820;2024-03-07T03:45:55;37.17;;;27.08;;
8716;SDS011;4395;48.554;8.820;2024-03-07T03:47:58;38.88;;;27.27;;
8716;SDS011;4395;48.554;8.820;2024-03-07T03:50:02;36.70;;;25.40;;
8716;SDS011;4395;48.554;8.820;2024-03-07T03:52:04;35.55;;;25.85;;
8716;SDS011;4395;48.554;8.820;2024-03-07T03:54:07;37.13;;;25.73;;
8716;SDS011;4395;48.554;8.820;2024-03-07T03:56:10;36.88;;;26.17;;
8716;SDS011;4395;48.554;8.820;2024-03-07T03:58:14;39.03;;;28.55;;
8716;SDS011;4395;48.554;8.820;2024-03-07T04:00:17;40.00;;;26.27;;
8716;SDS011;4395;48.554;8.820;2024-03-07T04:02:24;36.28;;;26.30;;
8716;SDS011;4395;48.554;8.820;2024-03-07T04:04:27;36.92;;;26.98;;
8716;SDS011;4395;48.554;8.820;2024-03-07T04:06:30;41.72;;;27.13;;
8716;SDS011;4395;48.554;8.820;2024-03-07T04:08:32;44.17;;;27.77;;
8716;SDS011;4395;48.554;8.820;2024-03-07T04:10:38;43.35;;;27.42;;
8716;SDS011;4395;48.554;8.820;2024-03-07T04:12:41;45.03;;;30.27;;
8716;SDS011;4395;48.554;8.820;2024-03-07T04:14:44;45.45;;;30.42;;
8716;SDS011;4395;48.554;8.820;2024-03-07T04:16:48;40.75;;;28.88;;
8716;SDS011;4395;48.554;8.820;2024-03-07T04:18:51;40.75;;;28.33;;
8716;SDS011;4395;48.554;8.820;2024-03-07T04:20:54;44.05;;;29.38;;
8716;SDS011;4395;48.554;8.820;2024-03-07T04:22:56;43.40;;;28.80;;
8716;SDS011;4395;48.554;8.820;2024-03-07T04:24:58;46.38;;;30.00;;
8716;SDS011;4395;48.554;8.820;2024-03-07T04:27:02;43.80;;;29.45;;
8716;SDS011;4395;48.554;8.820;2024-03-07T04:29:05;45.05;;;31.95;;
8716;SDS011;4395;48.554;8.820;2024-03-07T04:31:08;43.85;;;29.02;;
8716;SDS011;4395;48.554;8.820;2024-03-07T04:33:12;43.58;;;30.45;;
8716;SDS011;4395;48.554;8.820;2024-03-07T04:35:15;44.90;;;30.70;;
8716;SDS011;4395;48.554;8.820;2024-03-07T04:37:20;44.97;;;30.38;;
8716;SDS011;4395;48.554;8.820;2024-03-07T04:39:23;43.47;;;29.65;;
8716;SDS011;4395;48.554;8.820;2024-03-07T04:41:29;44.45;;;30.55;;
8716;SDS011;4395;48.554;8.820;2024-03-07T04:43:31;45.70;;;30.83;;
8716;SDS011;4395;48.554;8.820;2024-03-07T04:45:34;44.80;;;29.98;;
8716;SDS011;4395;48.554;8.820;2024-03-07T04:47:37;46.25;;;31.17;;
8716;SDS011;4395;48.554;8.820;2024-03-07T04:49:40;44.17;;;29.17;;
8716;SDS011;4395;48.554;8.820;2024-03-07T04:51:44;43.47;;;28.98;;
8716;SDS011;4395;48.554;8.820;2024-03-07T04:53:47;46.63;;;29.13;;
8716;SDS011;4395;48.554;8.820;2024-03-07T04:55:52;47.63;;;32.08;;
8716;SDS011;4395;48.554;8.820;2024-03-07T04:57:55;48.85;;;32.38;;
8716;SDS011;4395;48.554;8.820;2024-03-07T04:59:58;52.90;;;34.03;;
8716;SDS011;4395;48.554;8.820;2024-03-07T05:02:01;48.95;;;30.67;;
8716;SDS011;4395;48.554;8.820;2024-03-07T05:04:03;46.80;;;30.65;;
8716;SDS011;4395;48.554;8.820;2024-03-07T05:06:07;44.55;;;30.70;;
8716;SDS011;4395;48.554;8.820;2024-03-07T05:08:14;46.17;;;30.67;;
8716;SDS011;4395;48.554;8.820;2024-03-07T05:10:17;50.22;;;32.28;;
8716;SDS011;4395;48.554;8.820;2024-03-07T05:12:19;47.80;;;30.85;;
8716;SDS011;4395;48.554;8.820;2024-03-07T05:14:22;49.30;;;29.70;;
8716;SDS011;4395;48.554;8.820;2024-03-07T05:16:26;47.53;;;32.38;;
8716;SDS011;4395;48.554;8.820;2024-03-07T05:18:30;47.72;;;31.48;;
8716;SDS011;4395;48.554;8.820;2024-03-07T05:20:31;51.88;;;33.20;;
8716;SDS011;4395;48.554;8.820;2024-03-07T05:22:36;52.20;;;32.88;;
8716;SDS011;4395;48.554;8.820;2024-03-07T05:24:41;49.00;;;32.97;;
8716;SDS011;4395;48.554;8.820;2024-03-07T05:26:45;45.80;;;31.35;;
8716;SDS011;4395;48.554;8.820;2024-03-07T05:28:48;53.03;;;31.85;;
8716;SDS011;4395;48.554;8.820;2024-03-07T05:30:51;46.78;;;32.17;;
8716;SDS011;4395;48.554;8.820;2024-03-07T05:32:53;48.08;;;32.95;;
8716;SDS011;4395;48.554;8.820;2024-03-07T05:34:57;46.03;;;31.38;;
8716;SDS011;4395;48.554;8.820;2024-03-07T05:36:59;46.03;;;30.50;;
8716;SDS011;4395;48.554;8.820;2024-03-07T05:39:05;49.30;;;31.98;;
8716;SDS011;4395;48.554;8.820;2024-03-07T05:41:11;50.10;;;32.45;;
8716;SDS011;4395;48.554;8.820;2024-03-07T05:43:14;48.33;;;31.55;;
8716;SDS011;4395;48.554;8.820;2024-03-07T05:45:17;48.10;;;31.80;;
8716;SDS011;4395;48.554;8.820;2024-03-07T05:47:20;48.85;;;32.28;;
8716;SDS011;4395;48.554;8.820;2024-03-07T05:49:23;53.80;;;33.47;;
8716;SDS011;4395;48.554;8.820;2024-03-07T05:51:26;50.05;;;32.50;;
8716;SDS011;4395;48.554;8.820;2024-03-07T05:53:29;54.85;;;34.33;;
8716;SDS011;4395;48.554;8.820;2024-03-07T05:55:33;52.95;;;34.28;;
8716;SDS011;4395;48.554;8.820;2024-03-07T05:57:36;49.58;;;33.55;;
8716;SDS011;4395;48.554;8.820;2024-03-07T05:59:44;52.00;;;32.25;;
8716;SDS011;4395;48.554;8.820;2024-03-07T06:01:49;47.13;;;32.63;;
8716;SDS011;4395;48.554;8.820;2024-03-07T06:03:52;54.17;;;33.88;;
8716;SDS011;4395;48.554;8.820;2024-03-07T06:05:55;50.08;;;33.50;;
8716;SDS011;4395;48.554;8.820;2024-03-07T06:07:58;52.33;;;33.40;;
8716;SDS011;4395;48.554;8.820;2024-03-07T06:10:01;49.17;;;33.33;;
8716;SDS011;4395;48.554;8.820;2024-03-07T06:12:06;51.72;;;33.88;;
8716;SDS011;4395;48.554;8.820;2024-03-07T06:14:23;56.35;;;35.00;;
8716;SDS011;4395;48.554;8.820;2024-03-07T06:16:26;53.03;;;35.28;;
8716;SDS011;4395;48.554;8.820;2024-03-07T06:18:29;50.38;;;33.60;;
8716;SDS011;4395;48.554;8.820;2024-03-07T06:20:32;57.03;;;33.88;;
8716;SDS011;4395;48.554;8.820;2024-03-07T06:22:37;48.28;;;31.27;;
8716;SDS011;4395;48.554;8.820;2024-03-07T06:24:40;49.60;;;32.55;;
8716;SDS011;4395;48.554;8.820;2024-03-07T06:26:43;51.97;;;32.20;;
8716;SDS011;4395;48.554;8.820;2024-03-07T06:28:50;52.65;;;33.50;;
8716;SDS011;4395;48.554;8.820;2024-03-07T06:30:53;50.75;;;32.75;;
8716;SDS011;4395;48.554;8.820;2024-03-07T06:32:56;50.72;;;32.67;;
8716;SDS011;4395;48.554;8.820;2024-03-07T06:34:59;48.75;;;32.33;;
8716;SDS011;4395;48.554;8.820;2024-03-07T06:37:02;51.15;;;33.10;;
8716;SDS011;4395;48.554;8.820;2024-03-07T06:39:05;48.72;;;32.58;;
8716;SDS011;4395;48.554;8.820;2024-03-07T06:41:08;46.80;;;32.03;;
8716;SDS011;4395;48.554;8.820;2024-03-07T06:43:11;48.75;;;32.50;;
8716;SDS011;4395;48.554;8.820;2024-03-07T06:45:16;50.30;;;32.75;;
8716;SDS011;4395;48.554;8.820;2024-03-07T06:47:19;49.65;;;32.58;;
8716;SDS011;4395;48.554;8.820;2024-03-07T06:49:23;47.90;;;32.47;;
8716;SDS011;4395;48.554;8.820;2024-03-07T06:51:25;48.30;;;32.45;;
8716;SDS011;4395;48.554;8.820;2024-03-07T06:53:28;44.33;;;31.23;;
8716;SDS011;4395;48.554;8.820;2024-03-07T06:55:31;48.50;;;31.75;;
8716;SDS011;4395;48.554;8.820;2024-03-07T06:57:35;52.22;;;31.65;;
8716;SDS011;4395;48.554;8.820;2024-03-07T06:59:37;48.92;;;34.30;;
8716;SDS011;4395;48.554;8.820;2024-03-07T07:01:41;49.30;;;33.08;;
8716;SDS011;4395;48.554;8.820;2024-03-07T07:03:44;50.78;;;32.72;;
8716;SDS011;4395;48.554;8.820;2024-03-07T07:05:49;50.10;;;33.80;;
8716;SDS011;4395;48.554;8.820;2024-03-07T07:07:52;51.75;;;33.30;;
8716;SDS011;4395;48.554;8.820;2024-03-07T07:09:54;46.58;;;30.90;;
8716;SDS011;4395;48.554;8.820;2024-03-07T07:11:57;50.58;;;33.25;;
8716;SDS011;4395;48.554;8.820;2024-03-07T07:14:00;48.58;;;31.10;;
8716;SDS011;4395;48.554;8.820;2024-03-07T07:16:04;44.95;;;31.23;;
8716;SDS011;4395;48.554;8.820;2024-03-07T07:18:08;43.35;;;30.40;;
8716;SDS011;4395;48.554;8.820;2024-03-07T07:20:12;46.03;;;29.88;;
8716;SDS011;4395;48.554;8.820;2024-03-07T07:22:16;46.60;;;31.15;;
8716;SDS011;4395;48.554;8.820;2024-03-07T07:24:19;44.53;;;29.02;;
8716;SDS011;4395;48.554;8.820;2024-03-07T07:26:24;46.03;;;30.40;;
8716;SDS011;4395;48.554;8.820;2024-03-07T07:28:28;45.28;;;29.27;;
8716;SDS011;4395;48.554;8.820;2024-03-07T07:30:30;43.75;;;30.10;;
8716;SDS011;4395;48.554;8.820;2024-03-07T07:32:32;40.17;;;28.33;;
8716;SDS011;4395;48.554;8.820;2024-03-07T07:34:38;40.72;;;28.58;;
8716;SDS011;4395;48.554;8.820;2024-03-07T07:36:41;39.75;;;27.08;;
8716;SDS011;4395;48.554;8.820;2024-03-07T07:38:43;35.50;;;25.90;;
8716;SDS011;4395;48.554;8.820;2024-03-07T07:40:46;46.97;;;30.42;;
8716;SDS011;4395;48.554;8.820;2024-03-07T07:42:49;38.53;;;27.17;;
8716;SDS011;4395;48.554;8.820;2024-03-07T07:44:53;34.90;;;25.52;;
8716;SDS011;4395;48.554;8.820;2024-03-07T07:46:56;38.95;;;26.15;;
8716;SDS011;4395;48.554;8.820;2024-03-07T07:48:59;37.63;;;25.95;;
8716;SDS011;4395;48.554;8.820;2024-03-07T07:51:04;37.83;;;27.27;;
8716;SDS011;4395;48.554;8.820;2024-03-07T07:53:08;39.17;;;26.30;;
8716;SDS011;4395;48.554;8.820;2024-03-07T07:55:12;35.00;;;24.90;;
8716;SDS011;4395;48.554;8.820;2024-03-07T07:57:16;37.78;;;26.10;;
8716;SDS011;4395;48.554;8.820;2024-03-07T07:59:19;38.63;;;25.77;;
8716;SDS011;4395;48.554;8.820;2024-03-07T08:01:21;38.42;;;27.40;;
8716;SDS011;4395;48.554;8.820;2024-03-07T08:03:24;36.78;;;25.25;;
8716;SDS011;4395;48.554;8.820;2024-03-07T08:05:28;37.15;;;25.98;;
8716;SDS011;4395;48.554;8.820;2024-03-07T08:07:32;36.95;;;27.13;;
8716;SDS011;4395;48.554;8.820;2024-03-07T08:09:34;42.95;;;27.55;;
8716;SDS011;4395;48.554;8.820;2024-03-07T08:11:37;37.42;;;25.35;;
8716;SDS011;4395;48.554;8.820;2024-03-07T08:13:40;37.83;;;27.08;;
8716;SDS011;4395;48.554;8.820;2024-03-07T08:15:43;36.28;;;25.50;;
8716;SDS011;4395;48.554;8.820;2024-03-07T08:17:46;37.80;;;26.25;;
8716;SDS011;4395;48.554;8.820;2024-03-07T08:19:50;37.90;;;26.45;;
8716;SDS011;4395;48.554;8.820;2024-03-07T08:21:53;36.75;;;26.67;;
8716;SDS011;4395;48.554;8.820;2024-03-07T08:23:57;36.15;;;27.02;;
8716;SDS011;4395;48.554;8.820;2024-03-07T08:26:00;37.38;;;26.70;;
8716;SDS011;4395;48.554;8.820;2024-03-07T08:28:02;37.60;;;27.38;;
8716;SDS011;4395;48.554;8.820;2024-03-07T08:30:07;37.97;;;25.27;;
8716;SDS011;4395;48.554;8.820;2024-03-07T08:32:14;38.42;;;26.58;;
8716;SDS011;4395;48.554;8.820;2024-03-07T08:34:16;35.85;;;25.90;;
8716;SDS011;4395;48.554;8.820;2024-03-07T08:36:19;39.88;;;28.10;;
8716;SDS011;4395;48.554;8.820;2024-03-07T08:38:23;37.22;;;25.45;;
8716;SDS011;4395;48.554;8.820;2024-03-07T08:40:28;40.03;;;27.38;;
8716;SDS011;4395;48.554;8.820;2024-03-07T08:42:35;42.30;;;26.33;;
8716;SDS011;4395;48.554;8.820;2024-03-07T08:44:37;37.83;;;26.35;;
8716;SDS011;4395;48.554;8.820;2024-03-07T08:46:40;38.33;;;26.52;;
8716;SDS011;4395;48.554;8.820;2024-03-07T08:48:45;38.40;;;26.25;;
8716;SDS011;4395;48.554;8.820;2024-03-07T08:50:47;40.50;;;26.67;;
8716;SDS011;4395;48.554;8.820;2024-03-07T08:52:50;37.60;;;26.48;;
8716;SDS011;4395;48.554;8.820;2024-03-07T08:54:53;34.47;;;24.90;;
8716;SDS011;4395;48.554;8.820;2024-03-07T08:56:58;34.60;;;25.40;;
8716;SDS011;4395;48.554;8.820;2024-03-07T08:59:00;38.60;;;26.63;;
8716;SDS011;4395;48.554;8.820;2024-03-07T09:01:03;37.90;;;27.15;;
8716;SDS011;4395;48.554;8.820;2024-03-07T09:03:06;39.47;;;27.45;;
8716;SDS011;4395;48.554;8.820;2024-03-07T09:05:13;39.47;;;27.65;;
8716;SDS011;4395;48.554;8.820;2024-03-07T09:07:17;39.88;;;28.55;;
8716;SDS011;4395;48.554;8.820;2024-03-07T09:09:20;38.45;;;25.75;;
8716;SDS011;4395;48.554;8.820;2024-03-07T09:11:23;35.95;;;26.20;;
8716;SDS011;4395;48.554;8.820;2024-03-07T09:13:26;40.08;;;27.00;;
8716;SDS011;4395;48.554;8.820;2024-03-07T09:15:29;37.55;;;25.40;;
8716;SDS011;4395;48.554;8.820;2024-03-07T09:17:33;39.08;;;26.13;;
8716;SDS011;4395;48.554;8.820;2024-03-07T09:19:35;37.95;;;25.85;;
8716;SDS011;4395;48.554;8.820;2024-03-07T09:21:37;37.20;;;25.20;;
8716;SDS011;4395;48.554;8.820;2024-03-07T09:23:41;39.30;;;26.77;;
8716;SDS011;4395;48.554;8.820;2024-03-07T09:25:44;34.85;;;24.45;;
8716;SDS011;4395;48.554;8.820;2024-03-07T09:27:47;37.65;;;24.77;;
8716;SDS011;4395;48.554;8.820;2024-03-07T09:29:51;36.00;;;24.30;;
8716;SDS011;4395;48.554;8.820;2024-03-07T09:31:54;41.70;;;25.73;;
8716;SDS011;4395;48.554;8.820;2024-03-07T09:33:58;37.83;;;25.15;;
8716;SDS011;4395;48.554;8.820;2024-03-07T09:36:01;38.20;;;27.38;;
8716;SDS011;4395;48.554;8.820;2024-03-07T09:38:04;37.40;;;25.70;;
8716;SDS011;4395;48.554;8.820;2024-03-07T09:40:08;35.92;;;25.83;;
8716;SDS011;4395;48.554;8.820;2024-03-07T09:42:12;37.92;;;25.98;;
8716;SDS011;4395;48.554;8.820;2024-03-07T09:44:20;37.47;;;25.95;;
8716;SDS011;4395;48.554;8.820;2024-03-07T09:46:27;40.05;;;25.25;;
8716;SDS011;4395;48.554;8.820;2024-03-07T09:48:32;38.65;;;25.85;;
8716;SDS011;4395;48.554;8.820;2024-03-07T09:50:35;38.38;;;25.10;;
8716;SDS011;4395;48.554;8.820;2024-03-07T09:52:39;36.22;;;24.83;;
8716;SDS011;4395;48.554;8.820;2024-03-07T09:54:44;36.88;;;25.25;;
8716;SDS011;4395;48.554;8.820;2024-03-07T09:56:46;35.25;;;25.38;;
8716;SDS011;4395;48.554;8.820;2024-03-07T09:58:51;34.55;;;23.77;;
8716;SDS011;4395;48.554;8.820;2024-03-07T10:00:54;36.40;;;25.77;;
8716;SDS011;4395;48.554;8.820;2024-03-07T10:03:01;36.28;;;25.05;;
8716;SDS011;4395;48.554;8.820;2024-03-07T10:05:08;38.42;;;25.30;;
8716;SDS011;4395;48.554;8.820;2024-03-07T10:07:16;39.20;;;25.27;;
8716;SDS011;4395;48.554;8.820;2024-03-07T10:09:20;41.38;;;26.63;;
8716;SDS011;4395;48.554;8.820;2024-03-07T10:11:24;41.97;;;27.20;;
8716;SDS011;4395;48.554;8.820;2024-03-07T10:13:27;40.38;;;25.83;;
8716;SDS011;4395;48.554;8.820;2024-03-07T10:15:30;35.85;;;26.60;;
8716;SDS011;4395;48.554;8.820;2024-03-07T10:17:34;37.90;;;26.13;;
8716;SDS011;4395;48.554;8.820;2024-03-07T10:19:38;40.28;;;26.88;;
8716;SDS011;4395;48.554;8.820;2024-03-07T10:21:43;39.90;;;25.10;;
8716;SDS011;4395;48.554;8.820;2024-03-07T10:23:45;40.88;;;26.00;;
8716;SDS011;4395;48.554;8.820;2024-03-07T10:25:49;42.42;;;26.80;;
8716;SDS011;4395;48.554;8.820;2024-03-07T10:27:52;40.28;;;26.75;;
8716;SDS011;4395;48.554;8.820;2024-03-07T10:29:55;37.30;;;26.50;;
8716;SDS011;4395;48.554;8.820;2024-03-07T10:31:58;36.53;;;25.50;;
8716;SDS011;4395;48.554;8.820;2024-03-07T10:34:06;38.08;;;26.45;;
8716;SDS011;4395;48.554;8.820;2024-03-07T10:36:11;40.53;;;26.35;;
8716;SDS011;4395;48.554;8.820;2024-03-07T10:38:15;40.92;;;26.92;;
8716;SDS011;4395;48.554;8.820;2024-03-07T10:40:20;44.45;;;27.33;;
8716;SDS011;4395;48.554;8.820;2024-03-07T10:42:24;42.85;;;27.25;;
8716;SDS011;4395;48.554;8.820;2024-03-07T10:44:33;37.85;;;26.20;;
8716;SDS011;4395;48.554;8.820;2024-03-07T10:46:43;40.53;;;25.83;;
8716;SDS011;4395;48.554;8.820;2024-03-07T10:48:54;38.88;;;26.55;;
8716;SDS011;4395;48.554;8.820;2024-03-07T10:51:01;43.70;;;25.55;;
8716;SDS011;4395;48.554;8.820;2024-03-07T10:53:18;43.08;;;28.83;;
8716;SDS011;4395;48.554;8.820;2024-03-07T10:55:30;38.28;;;26.70;;
8716;SDS011;4395;48.554;8.820;2024-03-07T10:57:50;41.95;;;26.25;;
8716;SDS011;4395;48.554;8.820;2024-03-07T10:59:56;41.38;;;26.35;;
8716;SDS011;4395;48.554;8.820;2024-03-07T11:02:15;39.50;;;25.90;;
8716;SDS011;4395;48.554;8.820;2024-03-07T11:04:27;40.35;;;25.52;;
8716;SDS011;4395;48.554;8.820;2024-03-07T11:06:31;42.75;;;26.73;;
8716;SDS011;4395;48.554;8.820;2024-03-07T11:08:36;39.85;;;26.92;;
8716;SDS011;4395;48.554;8.820;2024-03-07T11:10:40;45.70;;;28.23;;
8716;SDS011;4395;48.554;8.820;2024-03-07T11:12:43;37.30;;;25.98;;
8716;SDS011;4395;48.554;8.820;2024-03-07T11:14:47;39.00;;;26.70;;
8716;SDS011;4395;48.554;8.820;2024-03-07T11:16:52;39.22;;;26.55;;
8716;SDS011;4395;48.554;8.820;2024-03-07T11:21:41;39.53;;;25.00;;
8716;SDS011;4395;48.554;8.820;2024-03-07T11:23:46;42.35;;;26.77;;
8716;SDS011;4395;48.554;8.820;2024-03-07T11:25:49;43.08;;;26.00;;
8716;SDS011;4395;48.554;8.820;2024-03-07T11:27:51;42.22;;;26.55;;
8716;SDS011;4395;48.554;8.820;2024-03-07T11:29:55;40.08;;;25.60;;
8716;SDS011;4395;48.554;8.820;2024-03-07T11:32:09;39.80;;;25.42;;
8716;SDS011;4395;48.554;8.820;2024-03-07T11:34:12;42.60;;;26.77;;
8716;SDS011;4395;48.554;8.820;2024-03-07T11:36:19;39.63;;;25.52;;
8716;SDS011;4395;48.554;8.820;2024-03-07T11:38:48;39.97;;;27.13;;
8716;SDS011;4395;48.554;8.820;2024-03-07T11:40:51;38.45;;;25.20;;
8716;SDS011;4395;48.554;8.820;2024-03-07T11:42:58;36.88;;;26.33;;
8716;SDS011;4395;48.554;8.820;2024-03-07T11:45:02;41.33;;;25.67;;
8716;SDS011;4395;48.554;8.820;2024-03-07T11:47:06;39.35;;;26.30;;
8716;SDS011;4395;48.554;8.820;2024-03-07T11:49:10;40.25;;;26.58;;
8716;SDS011;4395;48.554;8.820;2024-03-07T11:51:17;38.22;;;25.35;;
8716;SDS011;4395;48.554;8.820;2024-03-07T11:53:22;41.83;;;26.30;;
8716;SDS011;4395;48.554;8.820;2024-03-07T11:55:26;37.30;;;24.27;;
8716;SDS011;4395;48.554;8.820;2024-03-07T11:57:30;38.72;;;24.75;;
8716;SDS011;4395;48.554;8.820;2024-03-07T11:59:34;38.33;;;24.33;;
8716;SDS011;4395;48.554;8.820;2024-03-07T12:01:39;36.78;;;23.80;;
8716;SDS011;4395;48.554;8.820;2024-03-07T12:03:44;33.47;;;24.02;;
8716;SDS011;4395;48.554;8.820;2024-03-07T12:05:51;37.40;;;24.48;;
8716;SDS011;4395;48.554;8.820;2024-03-07T12:07:55;36.80;;;24.50;;
8716;SDS011;4395;48.554;8.820;2024-03-07T12:09:58;38.22;;;24.63;;
8716;SDS011;4395;48.554;8.820;2024-03-07T12:12:06;37.53;;;23.45;;
8716;SDS011;4395;48.554;8.820;2024-03-07T12:14:09;38.97;;;25.13;;
8716;SDS011;4395;48.554;8.820;2024-03-07T12:16:12;41.25;;;24.63;;
8716;SDS011;4395;48.554;8.820;2024-03-07T12:18:15;34.90;;;23.85;;
8716;SDS011;4395;48.554;8.820;2024-03-07T12:20:19;36.85;;;22.70;;
8716;SDS011;4395;48.554;8.820;2024-03-07T12:22:32;32.08;;;21.90;;
8716;SDS011;4395;48.554;8.820;2024-03-07T12:24:34;38.72;;;24.13;;
8716;SDS011;4395;48.554;8.820;2024-03-07T12:26:37;36.85;;;23.58;;
8716;SDS011;4395;48.554;8.820;2024-03-07T12:28:40;37.95;;;23.67;;
8716;SDS011;4395;48.554;8.820;2024-03-07T12:30:48;39.40;;;24.73;;